Time;durP1;ratioP1;P1;durP2;ratioP2;P2;SDS_P1;SDS_P2;PMS_P1;PMS_P2;Temp;Humidity;BMP_temperature;BMP_pressure;BME280_temperature;BME280_humidity;BME280_pressure;Samples;Min_cycle;Max_cycle;Signal;HPM_P1;HPM_P2
2022/04/14 00:04:02;;;;;;;10.47;6.50;;;16.10;63.80;;;;;;4917412;29;20639;-95
2022/04/14 00:06:33;;;;;;;15.40;8.57;;;16.10;63.70;;;;;;4917295;29;20215;-95
2022/04/14 00:09:00;;;;;;;16.17;8.83;;;16.00;63.80;;;;;;4918785;29;20243;-96
2022/04/14 00:11:29;;;;;;;22.20;10.37;;;16.00;63.60;;;;;;4917599;29;20207;-94
2022/04/14 00:14:22;;;;;;;14.57;8.00;;;15.90;63.70;;;;;;4905528;29;20221;-93
2022/04/14 00:16:49;;;;;;;31.63;13.60;;;15.90;64.50;;;;;;4916009;23;20238;-94
2022/04/14 00:19:17;;;;;;;16.33;9.03;;;15.80;64.00;;;;;;4901834;29;20221;-93
2022/04/14 00:21:47;;;;;;;14.47;8.67;;;15.70;64.00;;;;;;4902333;29;20837;-94
2022/04/14 00:24:16;;;;;;;10.93;7.93;;;15.70;64.20;;;;;;4900113;29;20214;-95
2022/04/14 00:26:46;;;;;;;13.57;8.67;;;15.60;64.30;;;;;;4899242;29;20201;-94
2022/04/14 00:29:35;;;;;;;15.03;8.57;;;15.60;64.50;;;;;;4900737;29;20767;-95
2022/04/14 00:35:07;;;;;;;14.37;8.60;;;15.50;65.00;;;;;;4878050;29;20243;-95
2022/04/14 00:37:48;;;;;;;21.30;9.87;;;15.40;64.60;;;;;;4886925;29;20202;-95
2022/04/14 00:40:23;;;;;;;11.07;8.47;;;15.40;65.30;;;;;;4900268;29;20220;-94
2022/04/14 00:42:51;;;;;;;11.20;7.73;;;15.40;65.40;;;;;;4898674;29;20311;-93
2022/04/14 00:45:18;;;;;;;14.13;8.17;;;15.30;64.90;;;;;;4899565;29;20217;-94
2022/04/14 00:47:47;;;;;;;13.53;7.70;;;15.30;65.60;;;;;;4889469;29;20222;-94
2022/04/14 00:50:33;;;;;;;15.57;8.87;;;15.20;65.00;;;;;;4881230;29;20254;-95
2022/04/14 00:53:24;;;;;;;16.50;9.33;;;15.20;65.70;;;;;;4898432;29;20221;-95
2022/04/14 00:56:26;;;;;;;12.93;8.03;;;15.20;65.70;;;;;;4902402;29;20230;-95
2022/04/14 00:58:54;;;;;;;15.00;9.67;;;15.10;65.80;;;;;;4915246;29;20212;-95
2022/04/14 01:01:26;;;;;;;21.73;10.87;;;15.10;65.30;;;;;;4922759;29;20201;-95
2022/04/14 01:03:55;;;;;;;16.90;9.57;;;15.10;66.10;;;;;;4906980;29;20206;-95
2022/04/14 01:06:23;;;;;;;12.87;8.10;;;15.10;65.70;;;;;;4902157;29;20241;-95
2022/04/14 01:11:41;;;;;;;17.93;9.57;;;15.00;66.00;;;;;;4893602;29;20282;-93
2022/04/14 01:14:20;;;;;;;17.80;10.17;;;15.00;65.70;;;;;;4887883;29;20214;-95
2022/04/14 01:16:47;;;;;;;14.43;8.83;;;15.00;66.40;;;;;;4902633;29;20229;-95
2022/04/14 01:19:15;;;;;;;12.03;7.57;;;14.90;65.80;;;;;;4905137;29;20280;-94
2022/04/14 01:21:59;;;;;;;14.17;9.23;;;14.90;66.00;;;;;;4900280;29;20622;-94
2022/04/14 01:24:29;;;;;;;11.97;8.80;;;14.90;66.60;;;;;;4884231;29;20210;-93
2022/04/14 01:27:12;;;;;;;20.43;9.60;;;14.90;66.30;;;;;;4896035;29;20677;-96
2022/04/14 01:29:40;;;;;;;15.77;8.70;;;14.90;66.90;;;;;;4913053;29;20733;-95
2022/04/14 01:32:09;;;;;;;14.23;8.73;;;14.90;66.40;;;;;;4895844;29;20963;-96
2022/04/14 01:34:37;;;;;;;18.77;10.33;;;14.80;66.40;;;;;;4899367;29;20287;-95
2022/04/14 01:37:07;;;;;;;15.77;9.00;;;14.80;66.50;;;;;;4895746;29;20301;-96
2022/04/14 01:39:36;;;;;;;14.60;9.17;;;14.80;66.50;;;;;;4902867;29;20210;-96
2022/04/14 01:43:00;;;;;;;16.43;8.90;;;14.80;66.50;;;;;;4900835;29;20202;-96
2022/04/14 01:45:28;;;;;;;15.03;8.43;;;14.70;67.10;;;;;;4873197;29;20222;-94
2022/04/14 01:48:02;;;;;;;15.93;8.90;;;14.70;66.80;;;;;;4900651;29;20241;-93
2022/04/14 01:50:29;;;;;;;12.83;7.33;;;14.70;67.40;;;;;;4902681;29;20214;-94
2022/04/14 01:52:57;;;;;;;12.07;7.73;;;14.70;66.90;;;;;;4903384;29;20220;-96
2022/04/14 01:55:26;;;;;;;12.73;8.53;;;14.60;67.00;;;;;;4884755;29;20230;-94
2022/04/14 01:57:58;;;;;;;14.43;8.60;;;14.60;67.40;;;;;;4883471;29;20234;-93
2022/04/14 02:00:27;;;;;;;11.80;8.10;;;14.60;67.50;;;;;;4899049;29;20220;-92
2022/04/14 02:06:17;;;;;;;18.73;8.93;;;14.60;68.00;;;;;;4877563;29;20221;-96
2022/04/14 02:08:46;;;;;;;12.67;8.00;;;14.50;67.40;;;;;;4902777;29;20284;-96
2022/04/14 02:11:26;;;;;;;12.87;8.30;;;14.50;67.40;;;;;;4901396;29;20205;-95
2022/04/14 02:13:54;;;;;;;12.37;7.47;;;14.50;68.20;;;;;;4882651;29;20198;-96
2022/04/14 02:16:24;;;;;;;17.70;9.10;;;14.50;67.60;;;;;;4898893;29;20864;-95
2022/04/14 02:18:51;;;;;;;14.13;8.80;;;14.40;67.80;;;;;;4901607;29;20236;-94
2022/04/14 02:21:24;;;;;;;11.70;8.03;;;14.40;67.60;;;;;;4903477;29;20218;-95
2022/04/14 02:24:04;;;;;;;15.23;9.13;;;14.40;68.20;;;;;;4886982;29;20201;-94
2022/04/14 02:26:35;;;;;;;11.30;8.07;;;14.40;69.20;;;;;;4888070;29;20222;-95
2022/04/14 02:29:04;;;;;;;13.33;8.00;;;14.40;68.20;;;;;;4907745;29;20280;-94
2022/04/14 02:31:38;;;;;;;13.93;8.70;;;14.30;68.10;;;;;;4906521;29;20216;-95
2022/04/14 02:34:08;;;;;;;12.30;8.30;;;14.30;68.30;;;;;;4886793;29;20693;-95
2022/04/14 02:36:35;;;;;;;15.13;8.80;;;14.30;68.10;;;;;;4890968;29;20248;-96
2022/04/14 02:39:04;;;;;;;13.83;8.70;;;14.30;68.20;;;;;;4900351;29;20266;-94
2022/04/14 02:41:37;;;;;;;13.77;8.17;;;14.30;68.40;;;;;;4900774;29;20285;-95
2022/04/14 02:44:06;;;;;;;14.97;8.87;;;14.30;68.30;;;;;;4883410;29;20222;-96
2022/04/14 02:46:33;;;;;;;17.83;8.70;;;14.30;68.20;;;;;;4895904;29;20272;-95
2022/04/14 02:49:03;;;;;;;12.43;8.20;;;14.20;68.20;;;;;;4888030;29;20218;-94
2022/04/14 02:51:32;;;;;;;16.73;8.37;;;14.20;68.60;;;;;;4891783;29;20627;-95
2022/04/14 02:57:01;;;;;;;14.97;9.07;;;14.20;68.50;;;;;;4905717;29;20227;-96
2022/04/14 02:59:47;;;;;;;22.60;10.23;;;14.20;68.60;;;;;;4897837;29;20557;-94
2022/04/14 03:02:18;;;;;;;14.00;8.10;;;14.20;69.00;;;;;;4886260;29;20206;-94
2022/04/14 03:04:48;;;;;;;15.50;8.70;;;14.20;68.60;;;;;;4888838;29;20237;-94
2022/04/14 03:07:18;;;;;;;13.60;8.23;;;14.10;68.80;;;;;;4891579;29;20209;-96
2022/04/14 03:09:46;;;;;;;15.87;8.70;;;14.10;68.60;;;;;;4886015;29;20217;-94
2022/04/14 03:12:15;;;;;;;12.30;7.73;;;14.10;68.80;;;;;;4899978;29;20232;-94
2022/04/14 03:20:51;;;;;;;18.83;9.57;;;14.00;68.90;;;;;;4895395;29;20208;-96
2022/04/14 03:23:20;;;;;;;14.47;8.03;;;14.00;69.60;;;;;;4893521;29;20280;-95
2022/04/14 03:25:52;;;;;;;14.80;7.93;;;14.00;69.10;;;;;;4900368;29;20680;-94
2022/04/14 03:28:20;;;;;;;26.10;10.60;;;13.90;69.10;;;;;;4900690;29;20213;-94
2022/04/14 03:30:49;;;;;;;13.13;7.60;;;13.90;69.10;;;;;;4900889;29;20585;-92
2022/04/14 03:33:22;;;;;;;20.13;9.30;;;13.90;69.20;;;;;;4900064;29;20658;-94
2022/04/14 03:42:24;;;;;;;12.73;7.23;;;13.80;69.30;;;;;;4816988;29;20222;-94
2022/04/14 03:44:57;;;;;;;14.87;7.57;;;13.80;69.00;;;;;;4845912;29;20207;-95
2022/04/14 03:47:25;;;;;;;12.73;7.10;;;13.80;69.40;;;;;;4869078;29;20221;-94
2022/04/14 03:49:53;;;;;;;11.20;6.83;;;13.80;69.40;;;;;;4889977;29;20609;-95
2022/04/14 03:52:28;;;;;;;16.50;8.23;;;13.80;69.50;;;;;;4890176;29;20706;-96
2022/04/14 03:54:56;;;;;;;10.63;7.07;;;13.70;69.30;;;;;;4903047;29;20195;-95
2022/04/14 03:57:23;;;;;;;13.20;7.60;;;13.80;69.30;;;;;;4896714;29;20304;-96
2022/04/14 03:59:56;;;;;;;15.30;8.13;;;13.70;69.20;;;;;;4896976;29;20297;-95
2022/04/14 04:02:25;;;;;;;8.43;6.67;;;13.70;69.50;;;;;;4901106;29;20220;-95
2022/04/14 04:04:54;;;;;;;11.90;7.67;;;13.70;69.70;;;;;;4902152;29;20212;-95
2022/04/14 04:07:21;;;;;;;15.77;8.00;;;13.70;69.60;;;;;;4899150;29;20227;-94
2022/04/14 04:09:55;;;;;;;13.77;7.00;;;13.60;69.40;;;;;;4899283;29;20233;-95
2022/04/14 04:12:22;;;;;;;13.50;7.10;;;13.60;69.40;;;;;;4892594;29;20240;-95
2022/04/14 04:14:50;;;;;;;13.73;7.27;;;13.60;69.30;;;;;;4882739;29;20210;-95
2022/04/14 04:17:20;;;;;;;12.73;7.20;;;13.60;69.20;;;;;;4886877;29;20295;-94
2022/04/14 04:19:49;;;;;;;10.10;7.13;;;13.60;69.40;;;;;;4893181;29;20668;-96
2022/04/14 04:22:20;;;;;;;20.60;9.17;;;13.60;69.50;;;;;;4900743;29;20227;-95
2022/04/14 04:24:52;;;;;;;10.33;6.77;;;13.60;69.70;;;;;;4901736;29;20219;-94
2022/04/14 04:27:23;;;;;;;24.23;9.70;;;13.60;69.80;;;;;;4901855;29;20200;-96
2022/04/14 04:29:54;;;;;;;16.30;8.17;;;13.50;70.00;;;;;;4902050;29;20228;-95
2022/04/14 04:32:23;;;;;;;15.27;8.17;;;13.50;70.40;;;;;;4889112;29;20208;-95
2022/04/14 04:34:51;;;;;;;15.90;6.77;;;13.50;70.70;;;;;;4897931;29;20221;-96
2022/04/14 04:37:23;;;;;;;15.93;7.83;;;13.50;70.40;;;;;;4896298;29;20346;-95
2022/04/14 04:39:51;;;;;;;16.30;7.87;;;13.50;70.70;;;;;;4911625;29;20212;-93
2022/04/14 04:42:23;;;;;;;19.47;8.63;;;13.50;70.80;;;;;;4909591;29;20615;-93
2022/04/14 04:47:39;;;;;;;11.60;6.70;;;13.40;70.80;;;;;;5015140;23;20386;-94
2022/04/14 04:50:09;;;;;;;19.70;8.87;;;13.40;70.90;;;;;;4940478;29;20212;-96
2022/04/14 04:53:01;;;;;;;11.50;6.97;;;13.50;71.30;;;;;;4939075;29;20219;-95
2022/04/14 04:55:29;;;;;;;14.30;7.57;;;13.40;71.00;;;;;;4931975;29;20206;-93
2022/04/14 04:57:57;;;;;;;11.70;7.03;;;13.40;71.00;;;;;;4940971;29;20225;-94
2022/04/14 05:00:25;;;;;;;16.30;7.73;;;13.40;71.00;;;;;;4938947;29;20207;-96
2022/04/14 05:02:56;;;;;;;13.40;7.13;;;13.40;71.40;;;;;;4938744;29;20212;-94
2022/04/14 05:08:07;;;;;;;15.50;7.43;;;13.30;71.20;;;;;;4927212;29;20216;-93
2022/04/14 05:10:39;;;;;;;14.27;7.93;;;13.30;71.30;;;;;;4950036;29;20211;-95
2022/04/14 05:13:06;;;;;;;10.43;6.77;;;13.30;71.50;;;;;;4947048;29;20227;-94
2022/04/14 05:15:35;;;;;;;13.57;7.27;;;13.30;71.20;;;;;;4937335;29;20203;-93
2022/04/14 05:18:10;;;;;;;13.63;7.77;;;13.30;71.20;;;;;;4940863;29;20305;-94
2022/04/14 05:20:38;;;;;;;11.47;5.90;;;13.30;71.90;;;;;;4938258;29;20242;-93
2022/04/14 05:23:08;;;;;;;10.30;6.67;;;13.30;71.30;;;;;;4940435;29;20248;-92
2022/04/14 05:25:39;;;;;;;13.57;6.87;;;13.30;71.90;;;;;;4934719;29;20221;-93
2022/04/14 05:31:28;;;;;;;17.50;8.17;;;13.30;72.20;;;;;;5203362;23;20318;-94
2022/04/14 05:33:57;;;;;;;13.57;7.47;;;13.30;71.40;;;;;;4920430;29;20621;-92
2022/04/14 05:36:25;;;;;;;14.60;8.13;;;13.30;71.80;;;;;;4918449;29;20232;-95
2022/04/14 05:38:53;;;;;;;22.33;9.60;;;13.30;72.00;;;;;;4919711;29;20207;-95
2022/04/14 05:41:20;;;;;;;13.50;6.97;;;13.30;72.20;;;;;;4921001;29;20734;-95
2022/04/14 05:43:52;;;;;;;12.60;7.00;;;13.30;72.50;;;;;;4920620;29;20213;-96
2022/04/14 05:46:21;;;;;;;18.43;8.07;;;13.30;72.50;;;;;;4911815;29;21027;-95
2022/04/14 05:49:29;;;;;;;11.07;6.37;;;13.30;72.70;;;;;;4920030;29;20215;-96
2022/04/14 05:51:58;;;;;;;11.57;7.37;;;13.30;74.20;;;;;;4919546;29;20219;-95
2022/04/14 05:54:28;;;;;;;15.50;7.53;;;13.30;73.80;;;;;;4921487;29;20218;-95
2022/04/14 05:56:55;;;;;;;19.90;8.43;;;13.30;74.70;;;;;;4929170;29;20229;-96
2022/04/14 05:59:24;;;;;;;15.57;7.27;;;13.40;75.70;;;;;;4921544;29;20709;-96
2022/04/14 06:01:56;;;;;;;18.33;8.77;;;13.40;75.30;;;;;;4921681;29;20238;-95
2022/04/14 06:04:25;;;;;;;10.53;7.10;;;13.40;76.10;;;;;;4920939;29;20208;-96
2022/04/14 06:06:58;;;;;;;14.50;7.83;;;13.50;77.50;;;;;;4923106;29;20216;-93
2022/04/14 06:09:29;;;;;;;12.60;7.87;;;13.50;77.30;;;;;;4926913;29;20205;-95
2022/04/14 06:11:56;;;;;;;23.63;9.57;;;13.60;77.80;;;;;;4915395;29;20224;-96
2022/04/14 06:14:25;;;;;;;14.00;7.73;;;13.60;77.80;;;;;;4908906;29;20213;-95
2022/04/14 06:16:52;;;;;;;11.57;7.00;;;13.70;78.60;;;;;;4901495;29;20241;-94
2022/04/14 06:22:41;;;;;;;16.87;8.90;;;13.90;81.30;;;;;;4988632;23;20244;-94
2022/04/14 06:25:31;;;;;;;24.10;9.97;;;13.90;80.70;;;;;;4914091;29;20650;-94
2022/04/14 06:28:07;;;;;;;20.67;8.20;;;14.00;81.30;;;;;;4915936;29;20234;-94
2022/04/14 06:30:36;;;;;;;23.73;9.13;;;14.10;80.80;;;;;;4916556;29;20200;-94
2022/04/14 06:33:12;;;;;;;18.97;8.57;;;14.20;80.30;;;;;;4902293;29;20261;-95
2022/04/14 06:35:43;;;;;;;16.67;8.00;;;14.30;80.70;;;;;;4916855;29;20236;-93
2022/04/14 06:38:14;;;;;;;14.17;7.73;;;14.40;80.40;;;;;;4918721;29;20232;-95
2022/04/14 06:40:43;;;;;;;15.73;8.23;;;14.40;80.00;;;;;;4918567;29;20216;-94
2022/04/14 06:43:14;;;;;;;15.00;7.73;;;14.50;79.80;;;;;;4918044;29;20296;-95
2022/04/14 06:45:43;;;;;;;16.17;7.83;;;14.60;79.40;;;;;;4917310;29;20208;-94
2022/04/14 06:48:10;;;;;;;16.60;8.97;;;14.60;79.70;;;;;;4916770;29;20232;-94
2022/04/14 06:50:38;;;;;;;13.20;8.17;;;14.70;79.10;;;;;;4921032;29;20220;-95
2022/04/14 06:53:07;;;;;;;12.03;6.97;;;14.70;79.10;;;;;;4927876;29;20205;-95
2022/04/14 06:55:37;;;;;;;16.23;8.33;;;14.80;79.50;;;;;;4921617;29;20217;-96
2022/04/14 06:58:08;;;;;;;14.80;7.50;;;14.80;79.30;;;;;;4916188;29;20970;-95
2022/04/14 07:00:41;;;;;;;12.97;7.93;;;14.90;79.50;;;;;;4920078;29;20208;-95
2022/04/14 07:03:09;;;;;;;16.97;8.53;;;15.00;79.90;;;;;;4920605;29;20206;-96
2022/04/14 07:05:40;;;;;;;16.43;8.00;;;15.00;79.40;;;;;;4918533;29;20295;-94
2022/04/14 07:08:09;;;;;;;17.40;8.13;;;15.10;79.90;;;;;;4916003;29;20205;-95
2022/04/14 07:10:44;;;;;;;15.23;7.73;;;15.10;79.30;;;;;;4915489;29;20570;-96
2022/04/14 07:13:17;;;;;;;15.93;8.37;;;15.20;79.70;;;;;;4898300;29;20215;-96
2022/04/14 07:15:50;;;;;;;12.27;7.97;;;15.20;79.80;;;;;;4901468;29;20206;-94
2022/04/14 07:18:21;;;;;;;19.70;8.23;;;15.30;79.90;;;;;;4899558;29;20227;-95
2022/04/14 07:20:48;;;;;;;13.93;7.50;;;15.30;79.70;;;;;;4899172;29;20218;-96
2022/04/14 07:23:34;;;;;;;17.03;8.83;;;15.40;79.20;;;;;;4903349;29;20619;-96
2022/04/14 07:26:10;;;;;;;15.07;7.63;;;15.50;79.60;;;;;;4890259;29;20215;-95
2022/04/14 07:28:40;;;;;;;12.33;7.93;;;15.50;79.70;;;;;;4893874;29;20221;-95
2022/04/14 07:31:08;;;;;;;21.77;9.10;;;15.60;79.00;;;;;;4900908;29;20230;-95
2022/04/14 07:33:53;;;;;;;13.70;7.90;;;15.60;79.10;;;;;;4902463;29;20259;-96
2022/04/14 07:36:30;;;;;;;17.73;8.27;;;15.70;79.60;;;;;;4899185;29;20603;-95
2022/04/14 07:39:04;;;;;;;16.47;8.13;;;15.80;79.80;;;;;;4902488;29;20244;-96
2022/04/14 07:44:16;;;;;;;12.97;7.47;;;15.90;79.20;;;;;;4906161;29;20205;-96
2022/04/14 07:46:51;;;;;;;120.33;18.97;;;15.90;78.70;;;;;;4913505;29;20197;-96
2022/04/14 07:49:18;;;;;;;17.77;8.77;;;16.00;79.30;;;;;;4913070;29;20207;-96
2022/04/14 07:51:46;;;;;;;16.03;8.07;;;16.00;78.70;;;;;;4901714;29;20294;-96
2022/04/14 07:54:19;;;;;;;13.47;7.63;;;16.10;78.70;;;;;;4903642;29;20220;-96
2022/04/14 07:56:53;;;;;;;25.00;8.70;;;16.20;79.00;;;;;;4900349;29;20226;-96
2022/04/14 07:59:21;;;;;;;23.27;8.70;;;16.30;79.20;;;;;;4910343;29;20222;-95
2022/04/14 08:01:51;;;;;;;18.20;8.90;;;16.30;78.50;;;;;;4915953;29;20211;-95
2022/04/14 08:04:18;;;;;;;17.50;8.07;;;16.40;78.60;;;;;;4909450;29;20204;-95
2022/04/14 08:06:45;;;;;;;19.30;9.37;;;16.40;78.20;;;;;;4916728;29;20212;-95
2022/04/14 08:09:15;;;;;;;24.53;10.07;;;16.50;78.30;;;;;;4915099;29;20207;-96
2022/04/14 08:11:43;;;;;;;15.53;9.10;;;16.60;78.30;;;;;;4911921;29;20233;-96
2022/04/14 08:14:13;;;;;;;19.60;9.43;;;16.60;78.20;;;;;;4914744;29;20212;-96
2022/04/14 08:16:42;;;;;;;17.97;8.70;;;16.60;78.30;;;;;;4912230;29;20213;-95
2022/04/14 08:19:14;;;;;;;17.03;7.60;;;16.70;78.20;;;;;;4920054;29;20258;-96
2022/04/14 08:21:42;;;;;;;14.47;7.73;;;16.80;78.20;;;;;;4920607;29;20228;-96
2022/04/14 08:24:13;;;;;;;20.63;7.67;;;16.80;78.10;;;;;;4922801;29;20220;-96
2022/04/14 08:26:46;;;;;;;13.77;7.07;;;16.90;78.10;;;;;;4903524;29;20242;-96
2022/04/14 08:29:23;;;;;;;15.40;8.33;;;17.00;78.10;;;;;;4905585;29;20217;-96
2022/04/14 08:31:53;;;;;;;13.63;7.60;;;17.10;77.90;;;;;;4922885;29;20209;-96
2022/04/14 08:34:22;;;;;;;17.57;8.30;;;17.20;77.70;;;;;;4922056;29;20224;-96
2022/04/14 08:36:54;;;;;;;15.87;7.70;;;17.20;77.30;;;;;;4923325;29;20282;-96
2022/04/14 08:39:34;;;;;;;14.27;7.93;;;17.30;77.10;;;;;;4912552;29;20243;-96
2022/04/14 08:45:55;;;;;;;20.20;9.73;;;17.40;77.30;;;;;;4877111;29;20248;-96
2022/04/14 08:52:00;;;;;;;20.80;9.27;;;17.60;77.50;;;;;;4945013;23;20283;-92
2022/04/14 08:54:35;;;;;;;16.40;7.40;;;17.80;78.00;;;;;;4934016;23;20241;-96
2022/04/14 08:57:05;;;;;;;15.60;7.70;;;17.90;77.70;;;;;;4916502;29;20271;-96
2022/04/14 08:59:32;;;;;;;10.47;7.17;;;18.10;77.10;;;;;;4915539;29;20234;-96
2022/04/14 09:02:05;;;;;;;15.87;7.83;;;18.30;76.70;;;;;;4913120;29;20213;-96
2022/04/14 09:04:38;;;;;;;20.53;8.10;;;18.40;76.40;;;;;;4920515;29;20285;-96
2022/04/14 09:07:06;;;;;;;12.17;7.57;;;18.60;76.20;;;;;;4924955;29;20204;-96
2022/04/14 09:09:49;;;;;;;15.47;8.07;;;18.80;76.00;;;;;;4925671;29;20632;-96
2022/04/14 09:12:19;;;;;;;12.20;6.90;;;19.10;75.20;;;;;;4907083;29;20217;-96
2022/04/14 09:14:46;;;;;;;15.90;8.13;;;19.30;75.20;;;;;;4918518;29;20227;-95
2022/04/14 09:17:16;;;;;;;12.40;6.90;;;19.50;75.30;;;;;;4918438;29;20304;-95
2022/04/14 09:19:44;;;;;;;16.87;8.07;;;19.80;74.10;;;;;;4916356;29;20260;-95
2022/04/14 09:22:12;;;;;;;12.60;6.43;;;20.00;74.30;;;;;;4918564;29;20224;-94
2022/04/14 09:24:41;;;;;;;14.60;7.63;;;20.20;73.10;;;;;;4916620;29;20208;-94
2022/04/14 09:27:25;;;;;;;9.77;6.80;;;20.40;72.10;;;;;;4919346;29;20303;-95
2022/04/14 09:29:56;;;;;;;12.60;7.37;;;20.60;70.90;;;;;;4911099;29;20221;-95
2022/04/14 09:32:36;;;;;;;10.10;6.77;;;20.80;71.30;;;;;;4919158;29;20216;-95
2022/04/14 09:35:06;;;;;;;15.43;6.47;;;20.90;69.80;;;;;;4914954;29;20597;-93
2022/04/14 09:37:36;;;;;;;17.50;7.80;;;21.10;70.40;;;;;;4918979;29;21876;-96
2022/04/14 09:40:30;;;;;;;13.07;7.23;;;21.20;69.70;;;;;;4926042;29;20204;-94
2022/04/14 09:42:57;;;;;;;17.60;8.07;;;21.30;68.00;;;;;;4917331;29;20684;-93
2022/04/14 09:45:26;;;;;;;12.47;7.37;;;21.40;68.80;;;;;;4908960;29;20205;-95
2022/04/14 09:48:02;;;;;;;15.43;8.00;;;21.50;68.20;;;;;;4917263;29;20928;-95
2022/04/14 09:50:34;;;;;;;13.33;7.13;;;21.60;67.50;;;;;;4905916;29;20212;-95
2022/04/14 09:53:06;;;;;;;13.27;7.17;;;21.80;67.60;;;;;;4918796;29;20300;-95
2022/04/14 09:58:21;;;;;;;12.63;6.63;;;22.00;66.30;;;;;;4940583;23;20232;-95
2022/04/14 10:00:50;;;;;;;26.53;10.30;;;22.10;65.80;;;;;;4926636;29;20268;-96
2022/04/14 10:03:22;;;;;;;14.77;7.93;;;22.20;65.00;;;;;;4918579;29;20604;-95
2022/04/14 10:05:52;;;;;;;17.63;8.53;;;22.20;64.30;;;;;;4936355;29;20291;-94
2022/04/14 10:08:20;;;;;;;13.73;7.10;;;22.30;65.30;;;;;;4923839;29;20271;-95
2022/04/14 10:11:10;;;;;;;14.63;7.33;;;22.30;64.40;;;;;;4933570;29;20212;-94
2022/04/14 10:13:39;;;;;;;11.90;7.40;;;22.40;62.90;;;;;;4898358;29;20281;-95
2022/04/14 10:16:08;;;;;;;15.07;8.23;;;22.50;63.80;;;;;;4904636;29;20937;-94
2022/04/14 10:18:39;;;;;;;14.47;7.27;;;22.60;63.10;;;;;;4909089;29;20748;-95
2022/04/14 10:21:07;;;;;;;12.03;7.07;;;22.70;62.90;;;;;;4908403;29;20206;-96
2022/04/14 10:23:37;;;;;;;13.70;7.67;;;22.70;62.50;;;;;;4898507;29;20210;-95
2022/04/14 10:26:04;;;;;;;17.17;7.50;;;22.80;62.00;;;;;;4898357;29;20237;-94
2022/04/14 10:28:35;;;;;;;14.73;8.00;;;22.80;62.50;;;;;;4902894;29;20209;-94
2022/04/14 10:31:03;;;;;;;12.20;7.10;;;22.90;61.80;;;;;;4899484;29;20292;-95
2022/04/14 10:36:39;;;;;;;14.90;7.30;;;23.10;61.40;;;;;;4908566;29;20240;-95
2022/04/14 10:39:15;;;;;;;26.13;10.80;;;23.20;60.60;;;;;;4918273;29;20237;-96
2022/04/14 10:41:53;;;;;;;21.10;8.30;;;23.30;60.70;;;;;;4923608;29;20228;-95
2022/04/14 10:45:02;;;;;;;11.57;6.23;;;23.40;59.80;;;;;;4916564;29;20208;-95
2022/04/14 10:47:53;;;;;;;12.07;6.47;;;23.50;59.40;;;;;;4914010;29;20276;-94
2022/04/14 10:50:28;;;;;;;14.83;8.00;;;23.60;59.50;;;;;;4912309;29;20265;-95
2022/04/14 10:53:23;;;;;;;13.90;7.20;;;23.70;59.30;;;;;;4915450;29;20197;-94
2022/04/14 10:55:51;;;;;;;14.77;7.40;;;23.70;58.80;;;;;;4915652;29;20205;-95
2022/04/14 10:58:55;;;;;;;13.10;7.30;;;23.90;59.80;;;;;;4917213;29;20283;-96
2022/04/14 11:01:58;;;;;;;16.90;8.10;;;24.00;58.40;;;;;;4907218;29;20229;-94
2022/04/14 11:04:36;;;;;;;12.70;7.27;;;24.10;57.60;;;;;;4916085;29;20213;-94
2022/04/14 11:07:11;;;;;;;11.77;7.70;;;24.20;58.20;;;;;;4923447;23;20232;-94
2022/04/14 11:09:58;;;;;;;14.60;7.73;;;24.30;57.80;;;;;;4914835;29;20408;-96
2022/04/14 11:12:32;;;;;;;22.97;10.10;;;24.40;56.30;;;;;;4879016;29;20201;-93
2022/04/14 11:15:02;;;;;;;14.67;7.67;;;24.40;56.20;;;;;;4898316;29;20209;-95
2022/04/14 11:17:53;;;;;;;14.33;6.60;;;24.50;57.10;;;;;;4892659;29;20238;-93
2022/04/14 11:23:11;;;;;;;15.30;7.90;;;24.60;57.80;;;;;;4936327;29;20216;-94
2022/04/14 11:25:48;;;;;;;16.03;7.20;;;24.70;55.30;;;;;;4934377;29;20833;-93
2022/04/14 11:28:25;;;;;;;26.37;8.27;;;24.70;56.10;;;;;;4936142;29;20307;-93
2022/04/14 11:31:04;;;;;;;12.90;7.00;;;24.80;55.10;;;;;;4928480;29;20222;-95
2022/04/14 11:33:36;;;;;;;14.43;7.63;;;24.80;55.60;;;;;;4935424;29;20207;-96
2022/04/14 11:36:16;;;;;;;21.93;7.53;;;24.90;55.30;;;;;;4934768;29;20223;-95
2022/04/14 11:39:01;;;;;;;9.60;5.83;;;24.90;54.60;;;;;;4927138;29;20280;-94
2022/04/14 11:41:56;;;;;;;14.33;7.50;;;25.00;55.00;;;;;;4931942;29;20219;-95
2022/04/14 11:44:32;;;;;;;15.10;6.93;;;25.00;53.20;;;;;;4923414;29;20208;-95
2022/04/14 11:47:05;;;;;;;16.13;7.30;;;25.10;54.60;;;;;;4935987;29;20311;-95
2022/04/14 11:50:00;;;;;;;13.57;6.47;;;25.10;54.10;;;;;;4943602;29;20207;-94
2022/04/14 11:52:35;;;;;;;14.97;5.90;;;25.20;54.00;;;;;;4941825;29;20208;-95
2022/04/14 11:55:30;;;;;;;10.70;4.93;;;25.20;53.40;;;;;;4946861;29;20239;-93
2022/04/14 11:58:05;;;;;;;11.83;6.30;;;25.30;54.20;;;;;;4944645;29;20235;-92
2022/04/14 12:01:27;;;;;;;8.83;5.33;;;25.40;52.90;;;;;;4943730;29;20252;-94
2022/04/14 12:03:55;;;;;;;6.90;4.67;;;25.50;52.00;;;;;;4941269;29;20212;-93
2022/04/14 12:09:31;;;;;;;9.07;4.40;;;25.60;52.10;;;;;;4927094;29;20225;-93
2022/04/14 12:14:26;;;;;;;8.03;3.90;;;25.60;52.20;;;;;;5004129;23;20227;-93
2022/04/14 12:16:57;;;;;;;11.33;5.07;;;25.70;51.90;;;;;;4931401;29;20213;-92
2022/04/14 12:19:39;;;;;;;10.83;5.43;;;25.70;51.70;;;;;;4924989;29;20885;-92
2022/04/14 12:22:06;;;;;;;10.40;4.60;;;25.70;52.40;;;;;;4932428;29;20299;-92
2022/04/14 12:24:34;;;;;;;12.97;5.70;;;25.80;51.80;;;;;;4929915;29;20204;-92
2022/04/14 12:27:02;;;;;;;12.07;5.10;;;25.90;51.30;;;;;;4932120;29;20219;-94
2022/04/14 12:29:42;;;;;;;7.63;4.93;;;25.90;51.60;;;;;;4919402;29;20235;-93
2022/04/14 12:32:15;;;;;;;19.43;4.73;;;26.00;51.30;;;;;;4923613;29;20229;-92
2022/04/14 12:34:57;;;;;;;62.47;11.07;;;26.00;50.90;;;;;;4937270;29;20232;-93
2022/04/14 12:43:06;;;;;;;15.97;6.70;;;26.20;50.90;;;;;;4910608;29;20212;-95
2022/04/14 12:46:07;;;;;;;13.50;6.07;;;26.20;51.40;;;;;;4939852;29;20228;-94
2022/04/14 12:48:37;;;;;;;12.33;5.70;;;26.30;50.50;;;;;;4944373;29;20192;-94
2022/04/14 12:51:05;;;;;;;26.07;13.63;;;26.30;50.90;;;;;;4942570;29;20211;-95
2022/04/14 12:53:34;;;;;;;10.60;6.03;;;26.40;50.20;;;;;;4948447;29;20224;-96
2022/04/14 12:56:12;;;;;;;9.77;5.10;;;26.40;50.30;;;;;;4952044;29;20204;-95
2022/04/14 12:58:40;;;;;;;30.63;7.10;;;26.40;50.20;;;;;;4953434;29;20259;-94
2022/04/14 13:01:12;;;;;;;16.10;5.93;;;26.40;49.30;;;;;;4955044;29;20208;-96
2022/04/14 13:04:18;;;;;;;12.40;4.67;;;26.50;49.50;;;;;;4953502;29;20201;-96
2022/04/14 13:07:05;;;;;;;11.80;4.60;;;26.50;48.00;;;;;;4946158;29;20274;-94
2022/04/14 13:09:33;;;;;;;22.27;6.17;;;26.40;49.00;;;;;;4929126;29;20220;-94
2022/04/14 13:12:16;;;;;;;13.97;5.93;;;26.40;50.00;;;;;;4923609;29;20296;-94
2022/04/14 13:14:49;;;;;;;14.93;5.60;;;26.50;49.50;;;;;;4927458;29;20233;-94
2022/04/14 13:17:23;;;;;;;6.40;3.80;;;26.60;49.40;;;;;;4926518;29;20196;-95
2022/04/14 13:22:38;;;;;;;9.00;4.07;;;26.70;50.00;;;;;;4911405;29;20324;-94
2022/04/14 13:25:06;;;;;;;12.43;3.83;;;26.80;49.50;;;;;;4921300;29;20212;-94
2022/04/14 13:27:54;;;;;;;10.20;4.37;;;26.90;49.60;;;;;;4927330;29;20228;-93
2022/04/14 13:30:22;;;;;;;26.67;8.33;;;27.00;48.00;;;;;;4910309;29;20237;-93
2022/04/14 13:32:55;;;;;;;13.57;5.03;;;27.10;48.50;;;;;;4917292;29;20291;-94
2022/04/14 13:35:22;;;;;;;10.13;4.67;;;27.20;48.10;;;;;;4920129;29;20208;-94
2022/04/14 13:37:57;;;;;;;11.80;4.40;;;27.20;48.60;;;;;;4919514;29;20208;-93
2022/04/14 13:40:25;;;;;;;14.17;5.43;;;27.30;48.90;;;;;;4918599;29;20390;-93
2022/04/14 13:42:56;;;;;;;16.93;5.53;;;27.30;48.60;;;;;;4917504;29;20607;-94
2022/04/14 13:45:25;;;;;;;48.47;10.77;;;27.40;47.60;;;;;;4918051;29;20988;-93
2022/04/14 13:48:15;;;;;;;23.20;6.77;;;27.50;48.00;;;;;;4917673;29;20265;-94
2022/04/14 13:50:47;;;;;;;10.27;5.30;;;27.50;47.30;;;;;;4906624;29;20215;-93
2022/04/14 13:53:17;;;;;;;37.93;7.17;;;27.50;47.60;;;;;;4917306;29;20208;-93
2022/04/14 13:55:44;;;;;;;14.53;4.90;;;27.50;47.30;;;;;;4922593;29;20212;-93
2022/04/14 13:58:21;;;;;;;16.00;6.90;;;27.40;46.60;;;;;;4909196;29;20205;-93
2022/04/14 14:00:49;;;;;;;12.50;5.10;;;27.40;47.30;;;;;;4900771;29;20243;-92
2022/04/14 14:03:49;;;;;;;14.43;5.60;;;27.30;47.10;;;;;;4902485;29;20197;-94
2022/04/14 14:06:16;;;;;;;12.50;5.57;;;27.30;46.40;;;;;;4918238;29;20232;-92
2022/04/14 14:08:45;;;;;;;11.40;4.17;;;27.20;47.20;;;;;;4919730;29;20728;-93
2022/04/14 14:11:13;;;;;;;14.83;5.20;;;27.20;47.10;;;;;;4919733;29;20240;-94
2022/04/14 14:13:44;;;;;;;10.33;4.57;;;27.20;47.40;;;;;;4917891;29;20733;-93
2022/04/14 14:16:15;;;;;;;12.80;4.70;;;27.10;47.00;;;;;;4903143;29;20217;-93
2022/04/14 14:18:45;;;;;;;12.07;4.17;;;27.00;46.30;;;;;;4910415;29;20208;-93